sensor_id;sensor_type;location;lat;lon;timestamp;pressure;altitude;pressure_sealevel;temperature;humidity
54262;BME280;40174;52.364;6.452;2023-03-14T00:02:15;98553.28;;;9.83;100.00
54262;BME280;40174;52.364;6.452;2023-03-14T00:04:42;98547.00;;;9.84;100.00
54262;BME280;40174;52.364;6.452;2023-03-14T00:07:10;98548.16;;;9.90;100.00
54262;BME280;40174;52.364;6.452;2023-03-14T00:09:36;98550.78;;;9.90;100.00
54262;BME280;40174;52.364;6.452;2023-03-14T00:12:04;98557.38;;;9.94;100.00
54262;BME280;40174;52.364;6.452;2023-03-14T00:14:32;98557.19;;;9.95;100.00
54262;BME280;40174;52.364;6.452;2023-03-14T00:16:59;98553.38;;;9.98;100.00
54262;BME280;40174;52.364;6.452;2023-03-14T00:19:27;98557.50;;;10.01;100.00
54262;BME280;40174;52.364;6.452;2023-03-14T00:21:53;98562.56;;;10.02;100.00
54262;BME280;40174;52.364;6.452;2023-03-14T00:24:20;98542.63;;;9.99;100.00
54262;BME280;40174;52.364;6.452;2023-03-14T00:26:46;98536.81;;;10.04;100.00
54262;BME280;40174;52.364;6.452;2023-03-14T00:29:13;98550.66;;;10.06;100.00
54262;BME280;40174;52.364;6.452;2023-03-14T00:31:40;98541.28;;;10.04;100.00
54262;BME280;40174;52.364;6.452;2023-03-14T00:34:08;98539.94;;;10.08;100.00
54262;BME280;40174;52.364;6.452;2023-03-14T00:36:36;98535.69;;;10.07;100.00
54262;BME280;40174;52.364;6.452;2023-03-14T00:39:02;98533.03;;;10.07;100.00
54262;BME280;40174;52.364;6.452;2023-03-14T00:41:30;98532.03;;;10.08;100.00
54262;BME280;40174;52.364;6.452;2023-03-14T00:43:57;98534.50;;;10.09;100.00
54262;BME280;40174;52.364;6.452;2023-03-14T00:46:23;98540.06;;;10.14;100.00
54262;BME280;40174;52.364;6.452;2023-03-14T00:48:50;98540.22;;;10.13;100.00
54262;BME280;40174;52.364;6.452;2023-03-14T00:51:17;98547.34;;;10.12;100.00
54262;BME280;40174;52.364;6.452;2023-03-14T00:53:45;98542.22;;;10.11;100.00
54262;BME280;40174;52.364;6.452;2023-03-14T00:56:12;98553.56;;;10.19;100.00
54262;BME280;40174;52.364;6.452;2023-03-14T00:58:39;98541.16;;;10.20;100.00
54262;BME280;40174;52.364;6.452;2023-03-14T01:01:07;98549.75;;;10.22;100.00
54262;BME280;40174;52.364;6.452;2023-03-14T01:03:35;98559.31;;;10.23;100.00
54262;BME280;40174;52.364;6.452;2023-03-14T01:06:13;98557.13;;;10.27;100.00
54262;BME280;40174;52.364;6.452;2023-03-14T01:08:41;98551.72;;;10.20;100.00
54262;BME280;40174;52.364;6.452;2023-03-14T01:11:12;98545.34;;;10.14;100.00
54262;BME280;40174;52.364;6.452;2023-03-14T01:13:39;98554.16;;;10.07;100.00
54262;BME280;40174;52.364;6.452;2023-03-14T01:16:08;98560.94;;;10.01;100.00
54262;BME280;40174;52.364;6.452;2023-03-14T01:18:37;98557.66;;;9.99;100.00
54262;BME280;40174;52.364;6.452;2023-03-14T01:21:10;98551.31;;;9.85;100.00
54262;BME280;40174;52.364;6.452;2023-03-14T01:23:37;98556.94;;;9.82;100.00
54262;BME280;40174;52.364;6.452;2023-03-14T01:26:04;98560.72;;;9.79;100.00
54262;BME280;40174;52.364;6.452;2023-03-14T01:28:36;98558.09;;;9.79;100.00
54262;BME280;40174;52.364;6.452;2023-03-14T01:31:03;98559.78;;;9.72;100.00
54262;BME280;40174;52.364;6.452;2023-03-14T01:33:30;98568.34;;;9.74;100.00
54262;BME280;40174;52.364;6.452;2023-03-14T01:35:57;98567.03;;;9.70;100.00
54262;BME280;40174;52.364;6.452;2023-03-14T01:38:24;98563.44;;;9.71;100.00
54262;BME280;40174;52.364;6.452;2023-03-14T01:40:50;98558.66;;;9.67;100.00
54262;BME280;40174;52.364;6.452;2023-03-14T01:43:19;98556.34;;;9.64;100.00
54262;BME280;40174;52.364;6.452;2023-03-14T01:46:16;98550.28;;;9.63;100.00
54262;BME280;40174;52.364;6.452;2023-03-14T01:48:48;98564.47;;;9.62;100.00
54262;BME280;40174;52.364;6.452;2023-03-14T01:51:20;98554.38;;;9.66;100.00
54262;BME280;40174;52.364;6.452;2023-03-14T01:53:49;98556.41;;;9.55;100.00
54262;BME280;40174;52.364;6.452;2023-03-14T01:56:18;98556.22;;;9.57;100.00
54262;BME280;40174;52.364;6.452;2023-03-14T01:58:47;98555.41;;;9.56;100.00
54262;BME280;40174;52.364;6.452;2023-03-14T02:01:18;98550.13;;;9.56;100.00
54262;BME280;40174;52.364;6.452;2023-03-14T02:03:51;98553.44;;;9.50;100.00
54262;BME280;40174;52.364;6.452;2023-03-14T02:06:21;98545.38;;;9.52;100.00
54262;BME280;40174;52.364;6.452;2023-03-14T02:08:50;98549.34;;;9.48;100.00
54262;BME280;40174;52.364;6.452;2023-03-14T02:11:21;98546.28;;;9.36;100.00
54262;BME280;40174;52.364;6.452;2023-03-14T02:14:02;98540.34;;;9.34;100.00
54262;BME280;40174;52.364;6.452;2023-03-14T02:16:50;98541.03;;;9.28;100.00
54262;BME280;40174;52.364;6.452;2023-03-14T02:19:50;98544.31;;;9.30;100.00
54262;BME280;40174;52.364;6.452;2023-03-14T02:22:30;98544.31;;;9.30;100.00
54262;BME280;40174;52.364;6.452;2023-03-14T02:25:07;98552.72;;;9.33;100.00
54262;BME280;40174;52.364;6.452;2023-03-14T02:27:36;98555.34;;;9.33;100.00
54262;BME280;40174;52.364;6.452;2023-03-14T02:30:06;98551.25;;;9.31;100.00
54262;BME280;40174;52.364;6.452;2023-03-14T02:32:36;98559.00;;;9.24;100.00
54262;BME280;40174;52.364;6.452;2023-03-14T02:35:08;98545.50;;;9.19;100.00
54262;BME280;40174;52.364;6.452;2023-03-14T02:37:40;98557.41;;;9.15;100.00
54262;BME280;40174;52.364;6.452;2023-03-14T02:40:09;98539.44;;;9.10;100.00
54262;BME280;40174;52.364;6.452;2023-03-14T02:42:39;98542.75;;;9.04;100.00
54262;BME280;40174;52.364;6.452;2023-03-14T02:45:36;98541.78;;;8.97;100.00
54262;BME280;40174;52.364;6.452;2023-03-14T02:48:06;98541.81;;;8.89;100.00
54262;BME280;40174;52.364;6.452;2023-03-14T02:50:36;98549.88;;;8.87;100.00
54262;BME280;40174;52.364;6.452;2023-03-14T02:53:04;98549.03;;;8.87;100.00
54262;BME280;40174;52.364;6.452;2023-03-14T02:55:30;98545.75;;;8.85;100.00
54262;BME280;40174;52.364;6.452;2023-03-14T02:58:04;98551.38;;;8.82;100.00
54262;BME280;40174;52.364;6.452;2023-03-14T03:00:31;98545.28;;;8.81;100.00
54262;BME280;40174;52.364;6.452;2023-03-14T03:02:58;98540.34;;;8.78;100.00
54262;BME280;40174;52.364;6.452;2023-03-14T03:05:26;98542.47;;;8.83;100.00
54262;BME280;40174;52.364;6.452;2023-03-14T03:07:53;98543.13;;;8.85;100.00
54262;BME280;40174;52.364;6.452;2023-03-14T03:10:22;98547.72;;;8.83;100.00
54262;BME280;40174;52.364;6.452;2023-03-14T03:12:49;98539.16;;;8.81;100.00
54262;BME280;40174;52.364;6.452;2023-03-14T03:15:18;98536.72;;;8.79;100.00
54262;BME280;40174;52.364;6.452;2023-03-14T03:17:44;98532.94;;;8.73;100.00
54262;BME280;40174;52.364;6.452;2023-03-14T03:20:11;98528.16;;;8.77;100.00
54262;BME280;40174;52.364;6.452;2023-03-14T03:22:38;98531.13;;;8.74;100.00
54262;BME280;40174;52.364;6.452;2023-03-14T03:25:07;98535.06;;;8.78;100.00
54262;BME280;40174;52.364;6.452;2023-03-14T03:27:35;98535.41;;;8.75;100.00
54262;BME280;40174;52.364;6.452;2023-03-14T03:30:04;98526.19;;;8.71;100.00
54262;BME280;40174;52.364;6.452;2023-03-14T03:32:34;98526.53;;;8.68;100.00
54262;BME280;40174;52.364;6.452;2023-03-14T03:35:01;98529.47;;;8.73;100.00
54262;BME280;40174;52.364;6.452;2023-03-14T03:37:30;98526.84;;;8.73;100.00
54262;BME280;40174;52.364;6.452;2023-03-14T03:39:57;98524.88;;;8.75;100.00
54262;BME280;40174;52.364;6.452;2023-03-14T03:42:25;98523.06;;;8.76;100.00
54262;BME280;40174;52.364;6.452;2023-03-14T03:44:52;98524.22;;;8.73;100.00
54262;BME280;40174;52.364;6.452;2023-03-14T03:47:19;98524.56;;;8.70;100.00
54262;BME280;40174;52.364;6.452;2023-03-14T03:49:47;98522.59;;;8.64;100.00
54262;BME280;40174;52.364;6.452;2023-03-14T03:52:13;98516.50;;;8.63;100.00
54262;BME280;40174;52.364;6.452;2023-03-14T03:54:40;98515.00;;;8.61;100.00
54262;BME280;40174;52.364;6.452;2023-03-14T03:57:07;98514.34;;;8.59;100.00
54262;BME280;40174;52.364;6.452;2023-03-14T03:59:34;98524.41;;;8.63;100.00
54262;BME280;40174;52.364;6.452;2023-03-14T04:02:01;98519.31;;;8.62;100.00
54262;BME280;40174;52.364;6.452;2023-03-14T04:04:27;98516.34;;;8.57;100.00
54262;BME280;40174;52.364;6.452;2023-03-14T04:06:56;98513.88;;;8.55;100.00
54262;BME280;40174;52.364;6.452;2023-03-14T04:09:22;98506.94;;;8.54;100.00
54262;BME280;40174;52.364;6.452;2023-03-14T04:12:06;98514.69;;;8.56;100.00
54262;BME280;40174;52.364;6.452;2023-03-14T04:14:52;98512.56;;;8.51;100.00
54262;BME280;40174;52.364;6.452;2023-03-14T04:17:21;98506.78;;;8.47;100.00
54262;BME280;40174;52.364;6.452;2023-03-14T04:19:47;98503.19;;;8.48;100.00
54262;BME280;40174;52.364;6.452;2023-03-14T04:22:18;98510.75;;;8.51;100.00
54262;BME280;40174;52.364;6.452;2023-03-14T04:24:48;98504.50;;;8.52;100.00
54262;BME280;40174;52.364;6.452;2023-03-14T04:27:14;98500.56;;;8.48;100.00
54262;BME280;40174;52.364;6.452;2023-03-14T04:29:43;98506.78;;;8.47;100.00
54262;BME280;40174;52.364;6.452;2023-03-14T04:32:13;98511.91;;;8.49;100.00
54262;BME280;40174;52.364;6.452;2023-03-14T04:34:41;98515.34;;;8.49;100.00
54262;BME280;40174;52.364;6.452;2023-03-14T04:37:08;98509.09;;;8.50;100.00
54262;BME280;40174;52.364;6.452;2023-03-14T04:39:41;98509.09;;;8.50;100.00
54262;BME280;40174;52.364;6.452;2023-03-14T04:42:24;98501.22;;;8.50;100.00
54262;BME280;40174;52.364;6.452;2023-03-14T04:44:51;98494.47;;;8.48;100.00
54262;BME280;40174;52.364;6.452;2023-03-14T04:47:21;98496.09;;;8.49;100.00
54262;BME280;40174;52.364;6.452;2023-03-14T04:49:50;98496.09;;;8.49;100.00
54262;BME280;40174;52.364;6.452;2023-03-14T04:52:17;98490.84;;;8.49;100.00
54262;BME280;40174;52.364;6.452;2023-03-14T04:54:45;98499.41;;;8.51;100.00
54262;BME280;40174;52.364;6.452;2023-03-14T04:57:12;98499.41;;;8.51;100.00
54262;BME280;40174;52.364;6.452;2023-03-14T04:59:40;98500.56;;;8.48;100.00
54262;BME280;40174;52.364;6.452;2023-03-14T05:02:26;98493.78;;;8.54;100.00
54262;BME280;40174;52.364;6.452;2023-03-14T05:05:05;98497.56;;;8.51;100.00
54262;BME280;40174;52.364;6.452;2023-03-14T05:07:43;98484.09;;;8.55;100.00
54262;BME280;40174;52.364;6.452;2023-03-14T05:10:23;98484.75;;;8.48;100.00
54262;BME280;40174;52.364;6.452;2023-03-14T05:13:09;98480.16;;;8.50;100.00
54262;BME280;40174;52.364;6.452;2023-03-14T05:16:06;98476.50;;;8.51;100.00
54262;BME280;40174;52.364;6.452;2023-03-14T05:18:51;98471.25;;;8.51;100.00
54262;BME280;40174;52.364;6.452;2023-03-14T05:21:44;98474.38;;;8.55;100.00
54262;BME280;40174;52.364;6.452;2023-03-14T05:24:33;98480.31;;;8.57;100.00
54262;BME280;40174;52.364;6.452;2023-03-14T05:27:14;98472.09;;;8.52;100.00
54262;BME280;40174;52.364;6.452;2023-03-14T05:30:14;98469.47;;;8.52;100.00
54262;BME280;40174;52.364;6.452;2023-03-14T05:32:49;98470.59;;;8.58;100.00
54262;BME280;40174;52.364;6.452;2023-03-14T05:35:32;98467.13;;;8.57;100.00
54262;BME280;40174;52.364;6.452;2023-03-14T05:38:31;98466.31;;;8.57;100.00
54262;BME280;40174;52.364;6.452;2023-03-14T05:41:06;98465.97;;;8.60;100.00
54262;BME280;40174;52.364;6.452;2023-03-14T05:44:02;98466.47;;;8.55;100.00
54262;BME280;40174;52.364;6.452;2023-03-14T05:46:40;98466.13;;;8.58;100.00
54262;BME280;40174;52.364;6.452;2023-03-14T05:49:25;98478.97;;;8.61;100.00
54262;BME280;40174;52.364;6.452;2023-03-14T05:52:01;98470.59;;;8.58;100.00
54262;BME280;40174;52.364;6.452;2023-03-14T05:54:47;98467.59;;;8.61;100.00
54262;BME280;40174;52.364;6.452;2023-03-14T05:57:29;98466.13;;;8.58;100.00
54262;BME280;40174;52.364;6.452;2023-03-14T06:00:19;98461.03;;;8.65;100.00
54262;BME280;40174;52.364;6.452;2023-03-14T06:02:55;98473.88;;;8.68;100.00
54262;BME280;40174;52.364;6.452;2023-03-14T06:05:28;98458.38;;;8.65;100.00
54262;BME280;40174;52.364;6.452;2023-03-14T06:07:59;98460.38;;;8.63;100.00
54262;BME280;40174;52.364;6.452;2023-03-14T06:10:27;98466.28;;;8.65;100.00
54262;BME280;40174;52.364;6.452;2023-03-14T06:12:54;98475.19;;;8.64;100.00
54262;BME280;40174;52.364;6.452;2023-03-14T06:15:22;98468.63;;;8.60;100.00
54262;BME280;40174;52.364;6.452;2023-03-14T06:17:53;98477.47;;;8.59;100.00
54262;BME280;40174;52.364;6.452;2023-03-14T06:20:20;98483.75;;;8.58;100.00
54262;BME280;40174;52.364;6.452;2023-03-14T06:22:48;98472.56;;;8.56;100.00
54262;BME280;40174;52.364;6.452;2023-03-14T06:25:15;98472.72;;;8.54;100.00
54262;BME280;40174;52.364;6.452;2023-03-14T06:27:44;98477.00;;;8.55;100.00
54262;BME280;40174;52.364;6.452;2023-03-14T06:30:12;98468.63;;;8.51;100.00
54262;BME280;40174;52.364;6.452;2023-03-14T06:32:40;98466.50;;;8.47;100.00
54262;BME280;40174;52.364;6.452;2023-03-14T06:35:10;98473.72;;;8.53;100.00
54262;BME280;40174;52.364;6.452;2023-03-14T06:37:40;98466.50;;;8.47;100.00
54262;BME280;40174;52.364;6.452;2023-03-14T06:40:08;98473.06;;;8.43;100.00
54262;BME280;40174;52.364;6.452;2023-03-14T06:42:54;98476.53;;;8.43;100.00
54262;BME280;40174;52.364;6.452;2023-03-14T06:45:22;98468.31;;;8.46;100.00
54262;BME280;40174;52.364;6.452;2023-03-14T06:47:52;98470.59;;;8.49;100.00
54262;BME280;40174;52.364;6.452;2023-03-14T06:50:23;98466.16;;;8.50;100.00
54262;BME280;40174;52.364;6.452;2023-03-14T06:52:50;98469.78;;;8.49;100.00
54262;BME280;40174;52.364;6.452;2023-03-14T06:55:21;98469.47;;;8.52;100.00
54262;BME280;40174;52.364;6.452;2023-03-14T06:57:48;98463.53;;;8.50;100.00
54262;BME280;40174;52.364;6.452;2023-03-14T07:00:15;98472.72;;;8.54;100.00
54262;BME280;40174;52.364;6.452;2023-03-14T07:02:43;98470.28;;;8.52;100.00
54262;BME280;40174;52.364;6.452;2023-03-14T07:05:25;98472.56;;;8.56;100.00
54262;BME280;40174;52.364;6.452;2023-03-14T07:07:52;98474.03;;;8.58;100.00
54262;BME280;40174;52.364;6.452;2023-03-14T07:10:18;98469.78;;;8.57;100.00
54262;BME280;40174;52.364;6.452;2023-03-14T07:12:45;98479.97;;;8.60;100.00
54262;BME280;40174;52.364;6.452;2023-03-14T07:15:15;98475.84;;;8.58;100.00
54262;BME280;40174;52.364;6.452;2023-03-14T07:17:41;98489.19;;;8.56;100.00
54262;BME280;40174;52.364;6.452;2023-03-14T07:20:09;98480.97;;;8.59;100.00
54262;BME280;40174;52.364;6.452;2023-03-14T07:22:38;98484.56;;;8.66;100.00
54262;BME280;40174;52.364;6.452;2023-03-14T07:25:05;98491.31;;;8.61;100.00
54262;BME280;40174;52.364;6.452;2023-03-14T07:27:32;98494.59;;;8.63;100.00
54262;BME280;40174;52.364;6.452;2023-03-14T07:29:59;98488.50;;;8.62;100.00
54262;BME280;40174;52.364;6.452;2023-03-14T07:32:26;98512.38;;;8.61;100.00
54262;BME280;40174;52.364;6.452;2023-03-14T07:34:52;98507.94;;;8.61;100.00
54262;BME280;40174;52.364;6.452;2023-03-14T07:37:19;98503.81;;;8.59;100.00
54262;BME280;40174;52.364;6.452;2023-03-14T07:39:47;98515.84;;;8.61;100.00
54262;BME280;40174;52.364;6.452;2023-03-14T07:42:19;98592.38;;;8.60;100.00
54262;BME280;40174;52.364;6.452;2023-03-14T07:45:09;98609.97;;;8.59;100.00
54262;BME280;40174;52.364;6.452;2023-03-14T07:47:36;98613.59;;;8.50;100.00
54262;BME280;40174;52.364;6.452;2023-03-14T07:50:03;98619.47;;;8.36;100.00
54262;BME280;40174;52.364;6.452;2023-03-14T07:52:30;98620.94;;;8.22;100.00
54262;BME280;40174;52.364;6.452;2023-03-14T07:54:58;98628.31;;;8.10;100.00
54262;BME280;40174;52.364;6.452;2023-03-14T07:57:25;98637.19;;;8.09;100.00
54262;BME280;40174;52.364;6.452;2023-03-14T07:59:51;98642.09;;;8.04;100.00
54262;BME280;40174;52.364;6.452;2023-03-14T08:02:18;98648.47;;;7.93;100.00
54262;BME280;40174;52.364;6.452;2023-03-14T08:04:47;98650.28;;;7.93;100.00
54262;BME280;40174;52.364;6.452;2023-03-14T08:07:14;98659.47;;;7.88;100.00
54262;BME280;40174;52.364;6.452;2023-03-14T08:09:41;98665.72;;;7.87;100.00
54262;BME280;40174;52.364;6.452;2023-03-14T08:12:09;98677.53;;;7.83;100.00
54262;BME280;40174;52.364;6.452;2023-03-14T08:14:35;98676.06;;;7.81;100.00
54262;BME280;40174;52.364;6.452;2023-03-14T08:17:02;98692.00;;;7.79;100.00
54262;BME280;40174;52.364;6.452;2023-03-14T08:19:28;98697.25;;;7.79;100.00
54262;BME280;40174;52.364;6.452;2023-03-14T08:21:55;98700.50;;;7.73;100.00
54262;BME280;40174;52.364;6.452;2023-03-14T08:24:22;98712.34;;;7.69;100.00
54262;BME280;40174;52.364;6.452;2023-03-14T08:26:48;98721.31;;;7.66;100.00
54262;BME280;40174;52.364;6.452;2023-03-14T08:29:16;98746.13;;;7.64;100.00
54262;BME280;40174;52.364;6.452;2023-03-14T08:31:43;98753.34;;;7.62;100.00
54262;BME280;40174;52.364;6.452;2023-03-14T08:34:10;98777.13;;;7.52;100.00
54262;BME280;40174;52.364;6.452;2023-03-14T08:36:37;98788.91;;;7.48;100.00
54262;BME280;40174;52.364;6.452;2023-03-14T08:39:03;98806.97;;;7.43;100.00
54262;BME280;40174;52.364;6.452;2023-03-14T08:41:32;98813.41;;;7.31;100.00
54262;BME280;40174;52.364;6.452;2023-03-14T08:44:05;98828.34;;;7.30;100.00
54262;BME280;40174;52.364;6.452;2023-03-14T08:46:33;98851.72;;;7.15;100.00
54262;BME280;40174;52.364;6.452;2023-03-14T08:49:00;98856.22;;;7.05;100.00
54262;BME280;40174;52.364;6.452;2023-03-14T08:51:26;98872.28;;;7.02;100.00
54262;BME280;40174;52.364;6.452;2023-03-14T08:53:54;98885.66;;;6.81;100.00
54262;BME280;40174;52.364;6.452;2023-03-14T08:56:20;98893.69;;;6.79;100.00
54262;BME280;40174;52.364;6.452;2023-03-14T08:58:47;98907.78;;;6.78;100.00
54262;BME280;40174;52.364;6.452;2023-03-14T09:01:13;98918.91;;;6.62;100.00
54262;BME280;40174;52.364;6.452;2023-03-14T09:03:41;98930.09;;;6.64;100.00
54262;BME280;40174;52.364;6.452;2023-03-14T09:06:10;98937.72;;;6.58;100.00
54262;BME280;40174;52.364;6.452;2023-03-14T09:08:36;98944.47;;;6.60;100.00
54262;BME280;40174;52.364;6.452;2023-03-14T09:11:06;98954.03;;;6.52;100.00
54262;BME280;40174;52.364;6.452;2023-03-14T09:13:35;98959.84;;;6.55;100.00
54262;BME280;40174;52.364;6.452;2023-03-14T09:16:01;98977.78;;;6.60;100.00
54262;BME280;40174;52.364;6.452;2023-03-14T09:18:28;98987.44;;;6.59;100.00
54262;BME280;40174;52.364;6.452;2023-03-14T09:20:56;99001.25;;;6.61;100.00
54262;BME280;40174;52.364;6.452;2023-03-14T09:23:23;99014.63;;;6.68;100.00
54262;BME280;40174;52.364;6.452;2023-03-14T09:25:54;99009.38;;;6.68;100.00
54262;BME280;40174;52.364;6.452;2023-03-14T09:28:21;99027.22;;;6.64;100.00
54262;BME280;40174;52.364;6.452;2023-03-14T09:30:48;99032.34;;;6.56;100.00
54262;BME280;40174;52.364;6.452;2023-03-14T09:33:15;99057.63;;;6.57;100.00
54262;BME280;40174;52.364;6.452;2023-03-14T09:35:41;99071.16;;;6.62;100.00
54262;BME280;40174;52.364;6.452;2023-03-14T09:38:09;99082.78;;;6.60;100.00
54262;BME280;40174;52.364;6.452;2023-03-14T09:40:37;99092.19;;;6.53;100.00
54262;BME280;40174;52.364;6.452;2023-03-14T09:43:05;99113.47;;;6.59;100.00
54262;BME280;40174;52.364;6.452;2023-03-14T09:45:34;99114.00;;;6.63;100.00
54262;BME280;40174;52.364;6.452;2023-03-14T09:48:03;99110.97;;;6.58;100.00
54262;BME280;40174;52.364;6.452;2023-03-14T09:50:37;99121.44;;;6.68;100.00
54262;BME280;40174;52.364;6.452;2023-03-14T09:53:08;99131.13;;;6.67;100.00
54262;BME280;40174;52.364;6.452;2023-03-14T09:55:37;99138.03;;;6.68;100.00
54262;BME280;40174;52.364;6.452;2023-03-14T09:58:10;99149.66;;;6.75;100.00
54262;BME280;40174;52.364;6.452;2023-03-14T10:00:38;99152.53;;;6.72;100.00
54262;BME280;40174;52.364;6.452;2023-03-14T10:03:22;99164.00;;;6.81;100.00
54262;BME280;40174;52.364;6.452;2023-03-14T10:05:49;99169.94;;;6.83;100.00
54262;BME280;40174;52.364;6.452;2023-03-14T10:08:17;99179.22;;;6.87;100.00
54262;BME280;40174;52.364;6.452;2023-03-14T10:10:45;99197.03;;;6.83;100.00
54262;BME280;40174;52.364;6.452;2023-03-14T10:13:15;99194.53;;;6.72;100.00
54262;BME280;40174;52.364;6.452;2023-03-14T10:15:47;99207.13;;;6.88;100.00
54262;BME280;40174;52.364;6.452;2023-03-14T10:18:14;99206.03;;;7.00;100.00
54262;BME280;40174;52.364;6.452;2023-03-14T10:20:43;99228.53;;;7.13;100.00
54262;BME280;40174;52.364;6.452;2023-03-14T10:23:24;99240.84;;;7.12;100.00
54262;BME280;40174;52.364;6.452;2023-03-14T10:26:04;99248.19;;;7.08;100.00
54262;BME280;40174;52.364;6.452;2023-03-14T10:28:32;99249.16;;;7.07;100.00
54262;BME280;40174;52.364;6.452;2023-03-14T10:31:00;99259.22;;;7.12;100.00
54262;BME280;40174;52.364;6.452;2023-03-14T10:33:28;99267.69;;;7.16;100.00
54262;BME280;40174;52.364;6.452;2023-03-14T10:35:57;99275.69;;;7.24;100.00
54262;BME280;40174;52.364;6.452;2023-03-14T10:38:25;99283.56;;;7.34;100.00
54262;BME280;40174;52.364;6.452;2023-03-14T10:40:54;99295.03;;;7.33;100.00
54262;BME280;40174;52.364;6.452;2023-03-14T10:43:26;99316.06;;;7.33;100.00
54262;BME280;40174;52.364;6.452;2023-03-14T10:45:54;99336.94;;;7.15;100.00
54262;BME280;40174;52.364;6.452;2023-03-14T10:48:30;99341.78;;;7.10;100.00
54262;BME280;40174;52.364;6.452;2023-03-14T10:51:03;99356.03;;;7.07;100.00
54262;BME280;40174;52.364;6.452;2023-03-14T10:53:39;99368.88;;;7.00;100.00
54262;BME280;40174;52.364;6.452;2023-03-14T10:56:06;99378.13;;;6.95;100.00
54262;BME280;40174;52.364;6.452;2023-03-14T10:58:38;99380.06;;;6.93;100.00
54262;BME280;40174;52.364;6.452;2023-03-14T11:01:18;99391.56;;;7.01;100.00
54262;BME280;40174;52.364;6.452;2023-03-14T11:03:51;99404.28;;;7.06;100.00
54262;BME280;40174;52.364;6.452;2023-03-14T11:06:23;99411.50;;;7.14;100.00
54262;BME280;40174;52.364;6.452;2023-03-14T11:08:57;99418.97;;;7.18;100.00
54262;BME280;40174;52.364;6.452;2023-03-14T11:11:31;99427.56;;;7.20;100.00
54262;BME280;40174;52.364;6.452;2023-03-14T11:14:12;99444.13;;;7.11;100.00
54262;BME280;40174;52.364;6.452;2023-03-14T11:16:49;99451.44;;;7.07;100.00
54262;BME280;40174;52.364;6.452;2023-03-14T11:22:21;99484.06;;;7.05;100.00
54262;BME280;40174;52.364;6.452;2023-03-14T11:25:16;99491.16;;;7.14;100.00
54262;BME280;40174;52.364;6.452;2023-03-14T11:27:48;99493.66;;;7.16;100.00
54262;BME280;40174;52.364;6.452;2023-03-14T11:30:22;99497.69;;;7.20;100.00
54262;BME280;40174;52.364;6.452;2023-03-14T11:32:54;99515.00;;;7.32;100.00
54262;BME280;40174;52.364;6.452;2023-03-14T11:35:24;99514.66;;;7.56;100.00
54262;BME280;40174;52.364;6.452;2023-03-14T11:37:54;99517.28;;;7.66;100.00
54262;BME280;40174;52.364;6.452;2023-03-14T11:40:23;99525.16;;;7.76;100.00
54262;BME280;40174;52.364;6.452;2023-03-14T11:42:59;99535.31;;;7.80;100.00
54262;BME280;40174;52.364;6.452;2023-03-14T11:45:32;99551.09;;;7.90;100.00
54262;BME280;40174;52.364;6.452;2023-03-14T11:48:23;99560.50;;;8.02;100.00
54262;BME280;40174;52.364;6.452;2023-03-14T11:50:52;99570.34;;;8.00;100.00
54262;BME280;40174;52.364;6.452;2023-03-14T11:53:34;99582.38;;;7.93;100.00
54262;BME280;40174;52.364;6.452;2023-03-14T11:56:03;99589.19;;;8.15;100.00
54262;BME280;40174;52.364;6.452;2023-03-14T11:58:35;99584.06;;;8.33;100.00
54262;BME280;40174;52.364;6.452;2023-03-14T12:01:09;99599.09;;;8.52;100.00
54262;BME280;40174;52.364;6.452;2023-03-14T12:03:44;99601.66;;;8.71;100.00
54262;BME280;40174;52.364;6.452;2023-03-14T12:06:17;99612.97;;;9.01;95.02
54262;BME280;40174;52.364;6.452;2023-03-14T12:08:47;99636.44;;;9.04;88.86
54262;BME280;40174;52.364;6.452;2023-03-14T12:11:32;99610.81;;;8.87;90.63
54262;BME280;40174;52.364;6.452;2023-03-14T12:14:00;99628.72;;;8.54;90.40
54262;BME280;40174;52.364;6.452;2023-03-14T12:16:35;99637.44;;;8.35;88.76
54262;BME280;40174;52.364;6.452;2023-03-14T12:24:49;99659.56;;;9.20;81.21
54262;BME280;40174;52.364;6.452;2023-03-14T12:27:38;99682.44;;;9.29;78.62
54262;BME280;40174;52.364;6.452;2023-03-14T12:30:17;99684.94;;;9.21;76.33
54262;BME280;40174;52.364;6.452;2023-03-14T12:33:20;99692.13;;;9.39;75.21
54262;BME280;40174;52.364;6.452;2023-03-14T12:35:57;99691.94;;;9.60;73.63
54262;BME280;40174;52.364;6.452;2023-03-14T12:38:31;99694.72;;;9.86;75.39
54262;BME280;40174;52.364;6.452;2023-03-14T12:41:10;99708.78;;;9.76;75.41
54262;BME280;40174;52.364;6.452;2023-03-14T12:43:39;99723.47;;;9.89;74.77
54262;BME280;40174;52.364;6.452;2023-03-14T12:46:15;99736.72;;;10.07;72.05
54262;BME280;40174;52.364;6.452;2023-03-14T12:48:48;99727.59;;;10.29;72.04
54262;BME280;40174;52.364;6.452;2023-03-14T12:51:16;99742.34;;;10.31;69.88
54262;BME280;40174;52.364;6.452;2023-03-14T12:53:59;99740.13;;;9.89;67.99
54262;BME280;40174;52.364;6.452;2023-03-14T12:56:45;99744.22;;;9.74;72.83
54262;BME280;40174;52.364;6.452;2023-03-14T12:59:30;99760.09;;;9.54;73.09
54262;BME280;40174;52.364;6.452;2023-03-14T13:02:01;99761.78;;;9.55;68.83
54262;BME280;40174;52.364;6.452;2023-03-14T13:04:33;99761.25;;;9.79;70.00
54262;BME280;40174;52.364;6.452;2023-03-14T13:09:49;99783.19;;;10.27;62.36
54262;BME280;40174;52.364;6.452;2023-03-14T13:12:18;99777.53;;;10.12;63.57
54262;BME280;40174;52.364;6.452;2023-03-14T13:14:50;99794.31;;;10.21;64.18
54262;BME280;40174;52.364;6.452;2023-03-14T13:17:23;99790.50;;;10.06;59.96
54262;BME280;40174;52.364;6.452;2023-03-14T13:19:53;99805.47;;;9.77;63.07
54262;BME280;40174;52.364;6.452;2023-03-14T13:22:24;99804.38;;;9.61;62.44
54262;BME280;40174;52.364;6.452;2023-03-14T13:24:59;99813.41;;;9.48;62.88
54262;BME280;40174;52.364;6.452;2023-03-14T13:27:26;99831.06;;;9.57;61.68
54262;BME280;40174;52.364;6.452;2023-03-14T13:29:53;99831.06;;;9.57;64.21
54262;BME280;40174;52.364;6.452;2023-03-14T13:32:21;99839.25;;;9.45;66.53
54262;BME280;40174;52.364;6.452;2023-03-14T13:34:48;99851.03;;;9.60;61.60